Time;durP1;ratioP1;P1;durP2;ratioP2;P2;SDS_P1;SDS_P2;PMS_P1;PMS_P2;Temp;Humidity;BMP_temperature;BMP_pressure;BME280_temperature;BME280_humidity;BME280_pressure;Samples;Min_cycle;Max_cycle;Signal;HPM_P1;HPM_P2
2023/09/21 00:01:03;;;;;;;7.47;2.92;;;16.30;99.90;;;;;;5055767;28;20494;-84
2023/09/21 00:03:34;;;;;;;5.80;3.20;;;16.30;99.90;;;;;;5072470;28;20051;-83
2023/09/21 00:06:01;;;;;;;5.07;2.97;;;16.20;99.90;;;;;;5055489;28;20044;-83
2023/09/21 00:08:26;;;;;;;7.40;3.40;;;16.20;99.90;;;;;;5057112;28;20469;-84
2023/09/21 00:10:54;;;;;;;6.53;3.30;;;16.20;99.90;;;;;;5055705;28;20041;-84
2023/09/21 00:13:22;;;;;;;6.28;3.13;;;16.10;99.90;;;;;;5072076;28;20574;-84
2023/09/21 00:15:50;;;;;;;6.28;3.00;;;16.10;99.90;;;;;;5055269;28;20044;-84
2023/09/21 00:18:15;;;;;;;7.10;3.17;;;16.10;99.90;;;;;;5071629;28;20098;-84
2023/09/21 00:23:07;;;;;;;4.30;2.90;;;16.20;99.90;;;;;;5072264;28;20534;-84
2023/09/21 00:25:34;;;;;;;5.38;3.00;;;16.00;99.90;;;;;;5071964;28;20044;-84
2023/09/21 00:28:07;;;;;;;7.28;3.40;;;16.00;99.90;;;;;;5055433;28;20079;-85
2023/09/21 00:30:33;;;;;;;6.95;2.90;;;16.00;99.90;;;;;;5054830;28;20055;-84
2023/09/21 00:32:59;;;;;;;6.57;2.92;;;16.00;99.90;;;;;;5055247;28;20041;-85
2023/09/21 00:35:29;;;;;;;6.57;3.30;;;16.10;99.90;;;;;;5073037;28;20040;-85
2023/09/21 00:37:56;;;;;;;6.10;2.78;;;16.00;99.90;;;;;;5075456;28;20040;-85
2023/09/21 00:40:22;;;;;;;5.40;3.25;;;16.00;99.90;;;;;;5056989;28;20036;-85
2023/09/21 00:42:49;;;;;;;4.72;2.75;;;16.10;99.90;;;;;;5055310;28;20036;-85
2023/09/21 00:45:18;;;;;;;9.48;3.28;;;16.10;99.90;;;;;;5054985;28;20044;-84
2023/09/21 00:47:52;;;;;;;6.88;3.47;;;16.10;99.90;;;;;;5054546;28;20505;-84
2023/09/21 00:50:22;;;;;;;4.50;3.00;;;16.10;99.90;;;;;;5053796;28;20555;-83
2023/09/21 00:52:53;;;;;;;6.40;2.75;;;16.10;99.90;;;;;;5071611;28;20060;-84
2023/09/21 00:55:25;;;;;;;6.25;3.00;;;16.10;99.90;;;;;;5072008;28;20467;-84
2023/09/21 00:58:02;;;;;;;4.93;2.88;;;16.20;99.90;;;;;;5071496;28;20041;-84
2023/09/21 01:00:30;;;;;;;6.55;3.17;;;16.20;99.90;;;;;;5070213;28;20517;-84
2023/09/21 01:03:00;;;;;;;4.25;2.60;;;16.20;99.90;;;;;;5054343;28;20032;-84
2023/09/21 01:05:26;;;;;;;4.45;3.03;;;16.20;99.90;;;;;;5052882;28;20040;-84
2023/09/21 01:07:52;;;;;;;5.43;3.17;;;16.20;99.90;;;;;;5052084;28;20036;-83
2023/09/21 01:10:23;;;;;;;5.18;2.80;;;16.20;99.90;;;;;;5049942;28;20050;-84
2023/09/21 01:12:49;;;;;;;4.50;2.88;;;16.30;99.90;;;;;;5054403;28;20032;-84
2023/09/21 01:15:16;;;;;;;6.82;3.00;;;16.30;99.90;;;;;;5054329;28;20056;-84
2023/09/21 01:17:42;;;;;;;4.43;2.72;;;16.30;99.90;;;;;;5055043;28;20437;-83
2023/09/21 01:20:29;;;;;;;7.15;2.80;;;16.30;99.90;;;;;;5069284;28;20040;-82
2023/09/21 01:23:17;;;;;;;6.30;2.90;;;16.40;99.90;;;;;;5065037;28;20056;-83
2023/09/21 01:25:44;;;;;;;5.68;3.13;;;16.40;99.90;;;;;;5070953;28;20503;-82
2023/09/21 01:28:13;;;;;;;6.13;3.00;;;16.40;99.90;;;;;;5049573;28;20082;-84
2023/09/21 01:30:39;;;;;;;4.28;2.60;;;16.50;99.90;;;;;;5045868;28;20040;-84
2023/09/21 01:33:07;;;;;;;5.38;2.83;;;16.50;99.90;;;;;;5066247;28;20068;-83
2023/09/21 01:35:33;;;;;;;8.50;3.28;;;16.50;99.90;;;;;;5070732;28;20511;-84
2023/09/21 01:37:59;;;;;;;3.90;2.70;;;16.50;99.90;;;;;;5071022;28;20123;-84
2023/09/21 01:40:24;;;;;;;5.70;3.00;;;16.50;99.90;;;;;;5054088;28;20078;-84
2023/09/21 01:42:50;;;;;;;4.07;2.90;;;16.50;99.90;;;;;;5054183;28;20040;-84
2023/09/21 01:45:16;;;;;;;5.10;3.20;;;16.50;99.90;;;;;;5070786;28;20469;-84
2023/09/21 01:47:43;;;;;;;5.57;2.88;;;16.50;99.90;;;;;;5069284;28;20119;-84
2023/09/21 01:50:11;;;;;;;6.60;3.58;;;16.60;99.90;;;;;;5045753;28;20403;-83
2023/09/21 01:52:40;;;;;;;4.30;3.10;;;16.50;99.90;;;;;;5053894;28;20047;-82
2023/09/21 01:55:10;;;;;;;7.78;2.92;;;16.60;99.90;;;;;;5057800;28;20119;-83
2023/09/21 01:57:37;;;;;;;4.38;2.90;;;16.60;99.90;;;;;;5072335;28;20445;-82
2023/09/21 02:00:11;;;;;;;6.40;3.22;;;16.60;99.90;;;;;;5062668;28;20081;-84
2023/09/21 02:02:37;;;;;;;5.50;3.45;;;16.50;99.90;;;;;;5057078;28;20040;-84
2023/09/21 02:05:04;;;;;;;7.57;3.65;;;16.60;99.90;;;;;;5090698;28;20471;-83
2023/09/21 02:07:30;;;;;;;5.22;3.22;;;16.50;99.90;;;;;;5090281;28;20051;-84
2023/09/21 02:09:56;;;;;;;5.50;3.13;;;16.50;99.90;;;;;;5055728;28;20033;-83
2023/09/21 02:12:23;;;;;;;10.45;3.80;;;16.50;99.90;;;;;;5052201;28;20127;-83
2023/09/21 02:14:49;;;;;;;6.93;3.38;;;16.50;99.90;;;;;;5090633;28;20086;-83
2023/09/21 02:17:14;;;;;;;7.78;3.25;;;16.50;99.90;;;;;;5068822;28;20037;-84
2023/09/21 02:19:41;;;;;;;4.97;3.28;;;16.50;99.90;;;;;;5053472;28;20127;-83
2023/09/21 02:22:07;;;;;;;8.68;3.50;;;16.50;99.90;;;;;;5053554;28;20036;-83
2023/09/21 02:24:32;;;;;;;9.45;3.10;;;16.40;99.90;;;;;;5053541;28;20045;-83
2023/09/21 02:26:58;;;;;;;4.90;2.72;;;16.50;99.90;;;;;;5036949;28;20036;-83
2023/09/21 02:29:24;;;;;;;4.85;2.97;;;16.50;99.90;;;;;;5052702;28;20136;-83
2023/09/21 02:31:50;;;;;;;6.03;3.22;;;16.50;99.90;;;;;;5053604;28;20459;-83
2023/09/21 02:34:16;;;;;;;5.57;3.17;;;16.40;99.90;;;;;;5053732;28;20041;-82
2023/09/21 02:36:42;;;;;;;5.82;2.92;;;16.40;99.90;;;;;;5070148;28;20033;-83
2023/09/21 02:39:08;;;;;;;7.03;3.40;;;16.50;99.90;;;;;;5053594;28;20032;-84
2023/09/21 02:41:34;;;;;;;4.82;3.08;;;16.40;99.90;;;;;;5056717;28;20075;-83
2023/09/21 02:44:00;;;;;;;6.88;3.35;;;16.40;99.90;;;;;;5075873;28;20563;-83
2023/09/21 02:46:28;;;;;;;7.40;3.53;;;16.30;99.90;;;;;;5094006;28;20036;-82
2023/09/21 02:48:54;;;;;;;5.13;3.00;;;16.30;99.90;;;;;;5071553;28;20120;-82
2023/09/21 02:51:20;;;;;;;7.70;3.53;;;16.30;99.90;;;;;;5074159;28;20075;-84
2023/09/21 02:53:46;;;;;;;5.03;2.97;;;16.30;99.90;;;;;;5057340;28;20094;-83
2023/09/21 02:56:12;;;;;;;6.00;3.13;;;16.30;99.90;;;;;;5073342;28;20525;-83
2023/09/21 02:58:40;;;;;;;4.85;2.88;;;16.30;99.90;;;;;;5066685;28;20071;-83
2023/09/21 03:01:06;;;;;;;5.70;2.88;;;16.30;99.90;;;;;;5057174;28;20045;-84
2023/09/21 03:03:31;;;;;;;4.78;3.00;;;16.30;99.90;;;;;;5073660;28;20047;-83
2023/09/21 03:05:58;;;;;;;4.63;2.83;;;16.30;99.90;;;;;;5073319;28;20391;-83
2023/09/21 03:08:23;;;;;;;8.43;3.72;;;16.30;99.90;;;;;;5047180;28;20044;-83
2023/09/21 03:10:52;;;;;;;4.40;2.80;;;16.30;99.90;;;;;;5051257;28;20402;-83
2023/09/21 03:13:19;;;;;;;4.45;3.00;;;16.30;99.90;;;;;;5056800;28;20039;-83
2023/09/21 03:15:58;;;;;;;6.07;2.97;;;16.30;99.90;;;;;;5056574;28;20398;-84
2023/09/21 03:18:25;;;;;;;5.50;3.22;;;16.30;99.90;;;;;;5056813;28;20052;-83
2023/09/21 03:20:52;;;;;;;3.90;2.88;;;16.30;99.90;;;;;;5051063;28;20086;-83
2023/09/21 04:43:34;;;;;;;3.45;2.75;;;16.10;99.90;;;;;;5592664;22;19927;-84
2023/09/21 04:46:02;;;;;;;5.80;3.15;;;16.10;99.90;;;;;;5017684;28;20045;-85
2023/09/21 04:48:28;;;;;;;4.05;2.88;;;16.10;99.90;;;;;;5033314;28;20383;-84
2023/09/21 04:50:53;;;;;;;7.13;3.53;;;16.00;99.90;;;;;;5035062;28;20039;-83
2023/09/21 04:53:19;;;;;;;5.93;2.83;;;16.00;99.90;;;;;;5027448;28;20482;-84
2023/09/21 04:55:46;;;;;;;5.47;2.67;;;16.00;99.90;;;;;;5054713;28;20043;-85
2023/09/21 04:58:11;;;;;;;4.68;2.67;;;16.00;99.90;;;;;;5037144;28;20512;-85
2023/09/21 05:00:37;;;;;;;5.93;2.90;;;16.00;99.90;;;;;;5033629;28;20029;-84
2023/09/21 05:03:03;;;;;;;6.70;2.90;;;16.00;99.90;;;;;;5036616;28;20461;-84
2023/09/21 05:05:28;;;;;;;5.07;2.90;;;16.00;99.90;;;;;;5052549;28;20051;-84
2023/09/21 05:07:54;;;;;;;3.80;2.80;;;16.00;99.90;;;;;;5037310;28;20115;-85
2023/09/21 05:10:19;;;;;;;5.60;3.13;;;16.00;99.90;;;;;;5038362;28;20043;-84
2023/09/21 05:12:48;;;;;;;4.00;2.75;;;16.00;99.90;;;;;;5054693;28;20086;-84
2023/09/21 05:15:15;;;;;;;4.70;2.75;;;16.00;99.90;;;;;;5049878;28;20098;-85
2023/09/21 05:17:41;;;;;;;6.53;3.30;;;16.10;99.90;;;;;;5032980;28;20490;-85
2023/09/21 05:20:09;;;;;;;5.75;2.95;;;16.10;99.90;;;;;;5053398;28;20074;-83
2023/09/21 05:22:35;;;;;;;6.35;2.90;;;16.10;99.90;;;;;;5050814;28;20089;-84
2023/09/21 05:25:02;;;;;;;4.60;3.10;;;16.10;99.90;;;;;;5031572;28;20449;-84
2023/09/21 05:27:31;;;;;;;3.80;2.83;;;16.20;99.90;;;;;;5054618;28;20065;-85
2023/09/21 05:29:57;;;;;;;5.80;2.60;;;16.20;99.90;;;;;;5054042;28;20089;-84
2023/09/21 05:32:24;;;;;;;6.35;3.00;;;16.20;99.90;;;;;;5034869;28;20036;-83
2023/09/21 05:34:51;;;;;;;4.28;2.70;;;16.30;99.90;;;;;;5034834;28;20040;-84
2023/09/21 05:37:18;;;;;;;5.93;2.83;;;16.30;99.90;;;;;;5052437;28;20357;-83
2023/09/21 05:39:45;;;;;;;4.80;3.13;;;16.30;99.90;;;;;;5054176;28;20056;-84
2023/09/21 05:42:10;;;;;;;3.70;2.78;;;16.40;99.90;;;;;;5035349;28;20040;-85
2023/09/21 05:44:38;;;;;;;4.50;3.13;;;16.50;99.90;;;;;;5037213;28;20047;-84
2023/09/21 05:47:03;;;;;;;4.70;2.75;;;16.50;99.90;;;;;;5054344;28;20372;-84
2023/09/21 05:49:31;;;;;;;5.75;2.83;;;16.60;99.90;;;;;;5036833;28;20047;-83
2023/09/21 05:51:58;;;;;;;4.60;2.63;;;16.60;99.90;;;;;;5054590;28;20040;-83
2023/09/21 05:54:24;;;;;;;4.22;2.85;;;16.60;99.90;;;;;;5054697;28;20090;-83
2023/09/21 05:56:53;;;;;;;4.40;2.90;;;16.60;99.90;;;;;;5052182;28;20045;-83
2023/09/21 05:59:19;;;;;;;5.30;2.80;;;16.60;99.90;;;;;;5052122;28;20037;-83
2023/09/21 06:01:46;;;;;;;4.70;3.08;;;16.60;99.90;;;;;;5053049;28;20036;-83
2023/09/21 06:04:16;;;;;;;5.13;3.30;;;16.70;99.90;;;;;;5053739;28;20033;-84
2023/09/21 06:06:45;;;;;;;4.82;3.05;;;16.70;99.90;;;;;;5068101;28;20090;-84
2023/09/21 06:09:13;;;;;;;6.97;3.22;;;16.70;99.90;;;;;;5060706;28;20387;-86
2023/09/21 06:11:39;;;;;;;5.05;3.30;;;16.70;99.90;;;;;;5048914;28;20502;-84
2023/09/21 06:14:04;;;;;;;5.03;3.10;;;16.70;99.90;;;;;;5053667;28;20047;-85
2023/09/21 06:16:32;;;;;;;5.25;2.70;;;16.70;99.90;;;;;;5035593;28;20118;-84
2023/09/21 06:18:58;;;;;;;4.47;3.00;;;16.70;99.90;;;;;;5057051;28;20059;-84
2023/09/21 06:21:24;;;;;;;4.70;2.83;;;16.70;99.90;;;;;;5041352;28;20040;-83
2023/09/21 06:23:50;;;;;;;5.18;3.00;;;16.70;99.90;;;;;;5057733;28;20048;-84
2023/09/21 06:26:16;;;;;;;4.93;3.33;;;16.70;99.90;;;;;;5057396;28;20040;-85
2023/09/21 06:28:47;;;;;;;4.78;3.20;;;16.70;99.90;;;;;;5057814;28;20049;-84
2023/09/21 06:31:13;;;;;;;4.93;2.95;;;16.80;99.90;;;;;;5057947;28;20040;-85
2023/09/21 06:33:42;;;;;;;6.40;3.10;;;16.70;99.90;;;;;;5040999;28;20107;-84
2023/09/21 06:36:18;;;;;;;4.38;3.40;;;16.70;99.90;;;;;;5040727;28;20048;-84
2023/09/21 06:38:47;;;;;;;6.70;3.50;;;16.70;99.90;;;;;;5057831;28;20501;-84
2023/09/21 06:41:13;;;;;;;5.38;3.50;;;16.70;99.90;;;;;;5057437;28;20048;-84
2023/09/21 06:43:42;;;;;;;7.88;3.92;;;16.70;99.90;;;;;;5057282;28;20123;-84
2023/09/21 06:46:08;;;;;;;5.20;3.60;;;16.60;99.90;;;;;;5057193;28;20036;-84
2023/09/21 06:48:38;;;;;;;6.88;3.70;;;16.60;99.90;;;;;;5058108;28;20071;-84
2023/09/21 06:51:04;;;;;;;4.90;3.60;;;16.60;99.90;;;;;;5040815;28;20123;-84
2023/09/21 06:53:31;;;;;;;5.43;3.90;;;16.50;99.90;;;;;;5057172;28;20486;-84
2023/09/21 06:55:58;;;;;;;6.45;3.67;;;16.50;99.90;;;;;;5040310;28;20049;-85
2023/09/21 06:58:24;;;;;;;5.38;4.10;;;16.50;99.90;;;;;;5040598;28;20063;-84
2023/09/21 07:00:50;;;;;;;4.32;3.90;;;16.50;99.90;;;;;;5040520;28;20044;-84
2023/09/21 07:03:17;;;;;;;7.88;4.03;;;16.50;99.90;;;;;;5040510;28;20090;-84
2023/09/21 07:05:44;;;;;;;4.25;3.83;;;16.50;99.90;;;;;;5057015;28;20448;-84
2023/09/21 07:08:10;;;;;;;4.28;3.50;;;16.60;99.90;;;;;;5057319;28;20036;-84
2023/09/21 07:10:36;;;;;;;6.18;4.07;;;16.70;99.90;;;;;;5057187;28;20045;-84
2023/09/21 07:13:03;;;;;;;5.55;3.53;;;16.70;99.90;;;;;;5057188;28;20036;-84
2023/09/21 07:15:29;;;;;;;8.27;3.58;;;16.70;99.90;;;;;;5056522;28;20048;-83
2023/09/21 07:17:56;;;;;;;5.80;4.07;;;16.70;99.90;;;;;;5040133;28;20052;-84
2023/09/21 07:20:23;;;;;;;5.18;3.47;;;16.80;99.90;;;;;;5056981;28;20072;-84
2023/09/21 07:22:49;;;;;;;6.28;3.97;;;16.80;99.90;;;;;;5039983;28;20044;-84
2023/09/21 07:25:15;;;;;;;5.70;3.22;;;16.80;99.90;;;;;;5039692;28;20044;-84
2023/09/21 07:27:42;;;;;;;4.72;3.42;;;16.80;99.90;;;;;;5056681;28;20036;-84
2023/09/21 07:30:08;;;;;;;5.97;3.67;;;16.70;99.90;;;;;;5055767;28;20111;-84
2023/09/21 07:32:35;;;;;;;6.15;3.72;;;16.70;99.90;;;;;;5040082;28;20140;-84
2023/09/21 07:35:04;;;;;;;4.38;3.90;;;16.70;99.90;;;;;;5056210;28;20125;-83
2023/09/21 07:37:30;;;;;;;5.72;3.88;;;16.70;99.90;;;;;;5056658;28;20399;-83
2023/09/21 07:39:57;;;;;;;6.30;3.67;;;16.70;99.90;;;;;;5056462;28;20044;-83
2023/09/21 07:42:22;;;;;;;6.93;4.03;;;16.70;99.90;;;;;;5056169;28;20048;-84
2023/09/21 07:44:48;;;;;;;6.82;3.60;;;16.70;99.90;;;;;;5039812;28;20043;-86
2023/09/21 07:47:14;;;;;;;6.75;3.67;;;16.60;99.90;;;;;;5039640;28;20037;-85
2023/09/21 07:49:39;;;;;;;7.05;4.35;;;16.60;99.90;;;;;;5039665;28;20068;-86
2023/09/21 07:52:07;;;;;;;6.20;4.00;;;16.60;99.90;;;;;;5056138;28;20032;-84
2023/09/21 07:54:33;;;;;;;6.32;3.72;;;16.60;99.90;;;;;;5039276;28;20032;-85
2023/09/21 07:56:59;;;;;;;5.72;4.25;;;16.60;99.90;;;;;;5039347;28;20083;-86
2023/09/21 07:59:25;;;;;;;7.35;4.40;;;16.60;99.90;;;;;;5039685;28;20079;-87
2023/09/21 08:01:53;;;;;;;6.22;4.50;;;16.60;99.90;;;;;;5056220;28;20079;-84
2023/09/21 08:04:20;;;;;;;7.40;5.28;;;16.60;99.90;;;;;;5039081;28;20063;-86
2023/09/21 08:06:46;;;;;;;5.78;4.50;;;16.60;99.90;;;;;;5039214;28;20471;-86
2023/09/21 08:09:14;;;;;;;6.45;4.43;;;16.60;99.90;;;;;;5039183;28;20040;-86
2023/09/21 08:11:40;;;;;;;6.80;4.80;;;16.60;99.90;;;;;;5039085;28;20029;-85
2023/09/21 08:14:06;;;;;;;4.65;4.25;;;16.60;99.90;;;;;;5055904;28;20059;-84
2023/09/21 08:16:32;;;;;;;5.15;4.65;;;16.60;99.90;;;;;;5039020;28;20040;-84
2023/09/21 08:19:01;;;;;;;7.07;5.05;;;16.70;99.90;;;;;;5055595;28;20094;-86
2023/09/21 08:21:31;;;;;;;5.32;4.68;;;16.70;99.90;;;;;;5039070;28;20050;-85
2023/09/21 08:23:56;;;;;;;5.88;4.63;;;16.70;99.90;;;;;;5055834;28;20449;-85
2023/09/21 08:26:22;;;;;;;7.30;4.97;;;16.70;99.90;;;;;;5038823;28;20174;-86
2023/09/21 08:28:47;;;;;;;5.35;4.38;;;16.70;99.90;;;;;;5055541;28;20460;-86
2023/09/21 08:31:13;;;;;;;6.38;5.20;;;16.70;99.90;;;;;;5055305;28;20056;-86
2023/09/21 08:33:39;;;;;;;7.53;5.03;;;16.70;99.90;;;;;;5038706;28;20037;-86
2023/09/21 08:36:09;;;;;;;12.68;6.45;;;16.70;99.90;;;;;;5038424;28;20048;-89
2023/09/21 08:38:34;;;;;;;7.07;4.55;;;16.70;99.90;;;;;;5039071;28;20036;-89
2023/09/21 08:41:02;;;;;;;9.70;6.63;;;16.60;99.90;;;;;;5055315;28;20090;-88
2023/09/21 08:43:29;;;;;;;6.78;5.80;;;16.60;99.90;;;;;;5038793;28;20040;-88
2023/09/21 08:45:55;;;;;;;7.63;5.45;;;16.60;99.90;;;;;;5038381;28;20047;-87
2023/09/21 08:48:26;;;;;;;8.20;6.80;;;16.60;99.90;;;;;;5055152;28;20037;-87
2023/09/21 08:50:52;;;;;;;9.25;6.30;;;16.60;99.90;;;;;;5038968;28;20044;-88
2023/09/21 08:53:26;;;;;;;8.30;5.78;;;16.50;99.90;;;;;;5038591;28;20544;-90
2023/09/21 08:55:53;;;;;;;9.23;5.97;;;16.60;99.90;;;;;;5038519;28;20452;-86
2023/09/21 08:58:23;;;;;;;8.00;6.30;;;16.50;99.90;;;;;;5038340;28;20041;-88
2023/09/21 09:00:53;;;;;;;8.70;7.80;;;16.50;99.90;;;;;;5038412;28;20123;-88
2023/09/21 09:03:40;;;;;;;10.27;7.68;;;16.50;99.90;;;;;;5038291;28;20058;-89
2023/09/21 09:06:15;;;;;;;8.23;7.40;;;16.40;99.90;;;;;;5056190;28;20040;-90
2023/09/21 09:09:19;;;;;;;7.80;7.10;;;16.50;99.90;;;;;;5038594;28;20090;-92
2023/09/21 09:11:50;;;;;;;6.65;5.88;;;16.50;99.90;;;;;;5054237;28;20041;-91
2023/09/21 09:15:02;;;;;;;6.63;5.05;;;16.50;99.90;;;;;;5055461;28;20033;-91
2023/09/21 09:17:39;;;;;;;6.10;4.60;;;16.40;99.90;;;;;;5056183;28;20379;-91
2023/09/21 09:20:06;;;;;;;4.53;3.95;;;16.40;99.90;;;;;;5038366;28;20036;-91
2023/09/21 09:22:34;;;;;;;3.58;2.30;;;16.40;99.90;;;;;;5037837;28;20040;-88
2023/09/21 09:25:09;;;;;;;2.85;2.13;;;16.30;99.90;;;;;;5037836;28;20040;-88
2023/09/21 09:27:35;;;;;;;4.72;3.00;;;16.30;99.90;;;;;;5054397;28;20051;-87
2023/09/21 09:30:04;;;;;;;2.53;2.33;;;16.20;99.90;;;;;;5054871;28;20388;-88
2023/09/21 09:32:40;;;;;;;7.57;2.80;;;16.20;99.90;;;;;;5038065;28;20040;-87
2023/09/21 09:35:11;;;;;;;5.10;2.97;;;16.10;99.90;;;;;;5037528;28;20552;-87
2023/09/21 09:37:37;;;;;;;3.97;2.78;;;16.10;99.90;;;;;;5054391;28;20054;-86
2023/09/21 09:40:23;;;;;;;2.78;1.60;;;16.10;99.90;;;;;;5054174;28;20032;-85
2023/09/21 09:42:51;;;;;;;3.83;2.30;;;16.10;99.90;;;;;;5054377;28;20132;-86
2023/09/21 09:45:24;;;;;;;4.55;2.67;;;16.00;99.90;;;;;;5053954;28;20422;-85
2023/09/21 09:47:57;;;;;;;3.00;1.92;;;16.00;99.90;;;;;;5054141;28;20068;-85
2023/09/21 09:50:25;;;;;;;5.40;2.92;;;16.00;99.90;;;;;;5037469;28;20032;-85
2023/09/21 09:53:01;;;;;;;4.85;2.67;;;15.90;99.90;;;;;;5053468;28;20052;-86
2023/09/21 09:55:31;;;;;;;3.35;1.95;;;15.90;99.90;;;;;;5054391;28;20076;-86
2023/09/21 09:57:57;;;;;;;4.63;1.90;;;15.90;99.90;;;;;;5054205;28;20052;-85
2023/09/21 10:00:27;;;;;;;5.22;1.55;;;15.90;99.90;;;;;;5053835;28;20119;-85
2023/09/21 10:02:55;;;;;;;6.63;2.22;;;15.80;99.90;;;;;;5053634;28;20047;-85
2023/09/21 10:05:22;;;;;;;2.72;1.58;;;15.70;99.90;;;;;;5053598;28;20044;-85
2023/09/21 10:07:54;;;;;;;3.22;1.67;;;15.70;99.90;;;;;;5054042;28;20037;-86
2023/09/21 10:10:22;;;;;;;1.67;1.20;;;15.80;99.90;;;;;;5037703;28;20048;-86
2023/09/21 10:12:52;;;;;;;8.18;2.22;;;15.70;99.90;;;;;;5053728;28;20534;-87
2023/09/21 10:15:23;;;;;;;4.97;1.40;;;15.70;99.90;;;;;;5053681;28;20036;-87
2023/09/21 10:17:54;;;;;;;2.95;1.20;;;15.60;99.90;;;;;;5037144;28;20083;-87
2023/09/21 10:20:32;;;;;;;2.92;1.30;;;15.60;99.90;;;;;;5037258;28;20102;-87
2023/09/21 10:23:01;;;;;;;2.10;1.20;;;15.60;99.90;;;;;;5037339;28;20044;-88
2023/09/21 10:25:55;;;;;;;4.95;1.73;;;15.50;99.90;;;;;;5053576;28;20135;-88
2023/09/21 10:28:27;;;;;;;5.82;2.20;;;15.40;99.90;;;;;;5033951;28;20084;-88
2023/09/21 10:31:18;;;;;;;4.07;1.73;;;15.40;99.90;;;;;;5053852;28;20036;-87
2023/09/21 10:33:51;;;;;;;4.03;1.65;;;15.50;99.90;;;;;;5037205;28;20044;-87
2023/09/21 10:36:23;;;;;;;3.23;1.60;;;15.50;99.90;;;;;;5053460;28;20048;-88
2023/09/21 10:39:05;;;;;;;3.88;1.95;;;15.40;99.90;;;;;;5053624;28;20278;-88
2023/09/21 10:41:31;;;;;;;4.57;2.42;;;15.50;99.90;;;;;;5037025;28;20048;-88
2023/09/21 15:06:14;;;;;;;5.40;3.50;;;15.00;99.90;;;;;;5885311;22;20073;-76
2023/09/21 15:08:39;;;;;;;5.50;3.72;;;15.10;99.90;;;;;;5013778;28;20049;-76
2023/09/21 15:11:05;;;;;;;3.97;2.65;;;15.10;99.90;;;;;;5013743;28;20042;-77
2023/09/21 15:13:32;;;;;;;5.03;2.92;;;15.20;99.90;;;;;;5013547;28;20124;-76
2023/09/21 15:15:57;;;;;;;5.00;2.72;;;15.20;99.90;;;;;;5013203;28;20052;-76
2023/09/21 15:18:24;;;;;;;3.92;2.70;;;15.20;99.90;;;;;;5013584;28;20037;-77
2023/09/21 15:20:50;;;;;;;5.53;3.67;;;15.20;99.90;;;;;;5014060;28;20042;-76
2023/09/21 15:23:15;;;;;;;4.00;2.88;;;15.10;99.90;;;;;;5013830;28;20046;-77
2023/09/21 15:25:42;;;;;;;4.45;3.00;;;15.00;99.90;;;;;;5013006;28;20046;-76
2023/09/21 15:28:07;;;;;;;5.43;2.90;;;15.00;99.90;;;;;;5013576;28;20072;-76
2023/09/21 15:30:37;;;;;;;4.18;3.05;;;15.00;99.90;;;;;;5013357;28;20033;-77
2023/09/21 15:33:06;;;;;;;5.85;2.80;;;14.90;99.90;;;;;;5013326;28;20045;-76
2023/09/21 15:35:32;;;;;;;4.32;3.08;;;14.90;99.90;;;;;;5013103;28;20073;-76
2023/09/21 15:37:57;;;;;;;3.92;2.90;;;14.80;99.90;;;;;;5013431;28;20491;-76
2023/09/21 15:40:23;;;;;;;5.18;4.15;;;14.80;99.90;;;;;;5013135;28;20507;-76
2023/09/21 15:42:51;;;;;;;4.72;4.18;;;14.80;99.90;;;;;;5013110;28;20033;-76
2023/09/21 15:45:17;;;;;;;8.52;4.68;;;14.80;99.90;;;;;;5012749;28;20050;-75
2023/09/21 15:47:42;;;;;;;5.20;4.13;;;14.80;99.90;;;;;;5012898;28;20042;-75
2023/09/21 15:50:08;;;;;;;6.53;5.30;;;14.80;99.90;;;;;;5012545;28;20046;-75
2023/09/21 15:52:34;;;;;;;8.93;6.15;;;14.80;99.90;;;;;;4996589;28;20034;-75
2023/09/21 15:55:02;;;;;;;7.00;5.43;;;14.80;99.90;;;;;;5012794;28;20060;-75
2023/09/21 15:57:28;;;;;;;8.30;6.18;;;14.80;99.90;;;;;;5013005;28;20129;-75
2023/09/21 15:59:54;;;;;;;13.95;7.38;;;14.80;99.90;;;;;;5012732;28;20528;-75
2023/09/21 16:02:20;;;;;;;13.90;7.40;;;14.80;99.90;;;;;;5012762;28;20037;-75
2023/09/21 16:04:46;;;;;;;6.07;4.95;;;14.80;99.90;;;;;;5012416;28;20044;-75
2023/09/21 16:07:11;;;;;;;6.88;5.50;;;14.80;99.90;;;;;;4996468;28;20053;-75
2023/09/21 16:09:38;;;;;;;7.60;5.93;;;14.80;99.90;;;;;;5012602;28;20030;-75
2023/09/21 16:12:06;;;;;;;5.72;4.53;;;14.70;99.90;;;;;;5010648;28;20387;-76
2023/09/21 16:14:33;;;;;;;4.15;3.75;;;14.70;99.90;;;;;;5008693;28;20377;-78
2023/09/21 16:17:02;;;;;;;6.40;4.68;;;14.70;99.90;;;;;;5006487;28;20068;-76
2023/09/21 16:19:28;;;;;;;5.95;4.63;;;14.60;99.90;;;;;;4994519;28;20247;-77
2023/09/21 16:21:54;;;;;;;5.88;5.13;;;14.60;99.90;;;;;;5012538;28;20568;-79
2023/09/21 16:24:21;;;;;;;6.57;5.88;;;14.50;99.90;;;;;;4997106;28;20038;-79
2023/09/21 16:26:48;;;;;;;8.32;5.70;;;14.50;99.90;;;;;;4998617;28;20061;-78
2023/09/21 16:29:14;;;;;;;7.28;6.57;;;14.40;99.90;;;;;;4994905;28;20038;-79
2023/09/21 16:31:40;;;;;;;7.90;6.30;;;14.40;99.90;;;;;;5013645;28;20480;-79
2023/09/21 16:34:05;;;;;;;8.45;6.82;;;14.30;99.90;;;;;;5014518;28;20392;-78
2023/09/21 16:36:31;;;;;;;12.60;9.07;;;14.30;99.90;;;;;;4996801;28;20050;-78
2023/09/21 16:38:57;;;;;;;7.22;6.50;;;14.30;99.90;;;;;;4981239;28;20128;-77
2023/09/21 16:41:22;;;;;;;8.80;7.95;;;14.30;99.90;;;;;;4988757;28;20053;-77
2023/09/21 16:43:48;;;;;;;8.57;7.28;;;14.30;99.90;;;;;;5008676;28;20041;-76
2023/09/21 16:46:14;;;;;;;7.40;6.57;;;14.30;99.90;;;;;;5005742;28;20451;-77
2023/09/21 16:48:40;;;;;;;7.43;5.38;;;14.20;99.90;;;;;;5007579;28;20042;-77
2023/09/21 16:51:06;;;;;;;7.10;5.75;;;14.20;99.90;;;;;;5007581;28;20496;-77
2023/09/21 16:53:32;;;;;;;4.55;4.15;;;14.20;99.90;;;;;;5010705;28;20049;-77
2023/09/21 16:55:58;;;;;;;9.70;6.85;;;14.20;99.90;;;;;;5010511;28;20054;-77
2023/09/21 16:58:24;;;;;;;5.65;4.47;;;14.20;99.90;;;;;;5011578;28;20050;-77
2023/09/21 17:00:50;;;;;;;5.57;4.88;;;14.20;99.90;;;;;;4994422;28;20578;-77
2023/09/21 17:03:16;;;;;;;8.00;5.60;;;14.20;99.90;;;;;;5010420;28;20078;-77
2023/09/21 17:05:41;;;;;;;11.75;6.28;;;14.10;99.90;;;;;;5010441;28;20033;-77
2023/09/21 17:08:09;;;;;;;7.55;4.57;;;14.10;99.90;;;;;;5010275;28;20415;-76
2023/09/21 17:10:35;;;;;;;10.18;6.13;;;14.10;99.90;;;;;;5002275;28;20038;-76
2023/09/21 17:13:01;;;;;;;8.43;5.15;;;14.20;99.90;;;;;;5012083;28;20036;-76
2023/09/21 17:15:26;;;;;;;10.50;6.28;;;14.20;99.90;;;;;;5007005;28;20042;-77
2023/09/21 17:17:52;;;;;;;11.52;6.15;;;14.20;99.90;;;;;;4993960;28;20041;-77
2023/09/21 17:20:17;;;;;;;7.03;5.63;;;14.20;99.90;;;;;;5010434;28;20049;-76
2023/09/21 17:22:43;;;;;;;17.60;8.80;;;14.20;99.90;;;;;;5008909;28;20041;-76
2023/09/21 17:25:11;;;;;;;20.02;9.23;;;14.20;99.90;;;;;;4993320;28;20065;-76
2023/09/21 17:27:39;;;;;;;9.32;6.95;;;14.10;99.90;;;;;;5010058;28;20068;-76
2023/09/21 17:30:06;;;;;;;16.95;10.07;;;14.20;99.90;;;;;;5010336;28;20052;-75
2023/09/21 17:32:31;;;;;;;29.65;13.30;;;14.20;99.90;;;;;;4990358;28;20488;-77
2023/09/21 17:34:57;;;;;;;16.10;11.45;;;14.20;99.90;;;;;;4992102;28;20316;-77
2023/09/21 17:37:23;;;;;;;13.52;10.65;;;14.20;99.90;;;;;;5009316;28;20517;-77
2023/09/21 17:39:51;;;;;;;12.13;10.82;;;14.20;99.90;;;;;;5009365;28;20783;-77
2023/09/21 17:42:17;;;;;;;16.48;12.48;;;14.20;99.90;;;;;;4995210;28;20033;-77
2023/09/21 17:44:43;;;;;;;15.98;12.73;;;14.20;99.90;;;;;;5004021;28;20037;-77
2023/09/21 17:47:10;;;;;;;12.35;11.02;;;14.20;99.90;;;;;;5005950;28;20064;-77
2023/09/21 17:49:36;;;;;;;18.58;13.50;;;14.20;99.90;;;;;;5009314;28;20046;-77
2023/09/21 17:52:03;;;;;;;12.85;11.38;;;14.20;99.90;;;;;;5007060;28;20038;-77
2023/09/21 17:54:29;;;;;;;16.02;13.20;;;14.20;99.90;;;;;;5005793;28;20046;-77
2023/09/21 17:56:55;;;;;;;16.75;13.20;;;14.20;99.90;;;;;;5009406;28;20037;-77
2023/09/21 17:59:21;;;;;;;13.82;12.38;;;14.20;99.90;;;;;;4991336;28;20185;-77
2023/09/21 18:01:46;;;;;;;13.98;12.50;;;14.20;99.90;;;;;;5008551;28;20049;-77
2023/09/21 18:04:12;;;;;;;20.60;14.63;;;14.20;99.90;;;;;;5009625;28;20087;-77
2023/09/21 18:06:38;;;;;;;23.67;15.40;;;14.20;99.90;;;;;;5007128;28;20046;-76
2023/09/21 18:09:06;;;;;;;11.93;10.82;;;14.20;99.90;;;;;;5007740;28;20049;-77
2023/09/21 18:11:36;;;;;;;13.07;11.68;;;14.20;99.90;;;;;;4984688;28;20053;-77
2023/09/21 18:14:02;;;;;;;12.40;11.25;;;14.20;99.90;;;;;;5012173;28;20041;-77
2023/09/21 18:16:28;;;;;;;13.82;12.20;;;14.20;99.90;;;;;;5012176;28;20038;-75
2023/09/21 18:18:53;;;;;;;14.52;12.57;;;14.20;99.90;;;;;;5010875;28;20118;-76
2023/09/21 18:21:19;;;;;;;14.23;12.75;;;14.20;99.90;;;;;;5012339;28;20037;-77
2023/09/21 18:23:45;;;;;;;11.98;10.75;;;14.20;99.90;;;;;;5009663;28;20041;-77
2023/09/21 18:26:11;;;;;;;19.00;14.60;;;14.20;99.90;;;;;;5013181;28;20038;-77
2023/09/21 18:28:36;;;;;;;16.58;14.65;;;14.20;99.90;;;;;;4995158;28;20034;-77
2023/09/21 18:31:02;;;;;;;13.88;12.57;;;14.20;99.90;;;;;;5011499;28;20137;-76
2023/09/21 18:33:28;;;;;;;14.27;12.88;;;14.20;99.90;;;;;;5012319;28;20522;-76